sensor_id;sensor_type;location;lat;lon;timestamp;P1;P2;P0
80555;PMS5003;69889;55.040;73.076;2023-11-19T00:00:58;1.00;1.00;1.00
80555;PMS5003;69889;55.040;73.076;2023-11-19T00:03:24;2.00;2.00;2.00
80555;PMS5003;69889;55.040;73.076;2023-11-19T00:05:50;2.00;1.00;1.00
80555;PMS5003;69889;55.040;73.076;2023-11-19T00:08:17;1.00;1.00;0.25
80555;PMS5003;69889;55.040;73.076;2023-11-19T00:10:43;1.00;1.00;0.00
80555;PMS5003;69889;55.040;73.076;2023-11-19T00:13:09;2.00;2.00;1.00
80555;PMS5003;69889;55.040;73.076;2023-11-19T00:15:36;2.00;2.00;1.00
80555;PMS5003;69889;55.040;73.076;2023-11-19T00:18:02;3.00;2.00;1.00
80555;PMS5003;69889;55.040;73.076;2023-11-19T00:20:30;1.00;1.00;1.00
80555;PMS5003;69889;55.040;73.076;2023-11-19T00:22:57;2.00;1.00;1.00
80555;PMS5003;69889;55.040;73.076;2023-11-19T00:25:23;2.00;2.00;1.00
80555;PMS5003;69889;55.040;73.076;2023-11-19T00:27:50;2.00;2.00;1.00
80555;PMS5003;69889;55.040;73.076;2023-11-19T00:30:17;1.75;1.25;1.00
80555;PMS5003;69889;55.040;73.076;2023-11-19T00:32:44;2.25;2.00;1.00
80555;PMS5003;69889;55.040;73.076;2023-11-19T00:35:11;1.00;1.00;1.00
80555;PMS5003;69889;55.040;73.076;2023-11-19T00:37:39;3.00;2.00;1.00
80555;PMS5003;69889;55.040;73.076;2023-11-19T00:40:06;2.00;2.00;1.00
80555;PMS5003;69889;55.040;73.076;2023-11-19T00:42:33;1.00;1.00;1.00
80555;PMS5003;69889;55.040;73.076;2023-11-19T00:44:59;1.00;1.00;1.00
80555;PMS5003;69889;55.040;73.076;2023-11-19T00:47:27;3.00;2.50;1.00
80555;PMS5003;69889;55.040;73.076;2023-11-19T00:49:54;2.00;2.00;1.00
80555;PMS5003;69889;55.040;73.076;2023-11-19T00:52:20;2.00;2.00;1.00
80555;PMS5003;69889;55.040;73.076;2023-11-19T00:54:48;1.00;1.00;1.00
80555;PMS5003;69889;55.040;73.076;2023-11-19T00:57:14;2.00;1.00;1.00
80555;PMS5003;69889;55.040;73.076;2023-11-19T00:59:43;2.25;2.00;1.00
80555;PMS5003;69889;55.040;73.076;2023-11-19T01:02:10;1.25;1.00;0.50
80555;PMS5003;69889;55.040;73.076;2023-11-19T01:04:37;1.00;1.00;0.75
80555;PMS5003;69889;55.040;73.076;2023-11-19T01:07:04;2.00;2.00;1.00
80555;PMS5003;69889;55.040;73.076;2023-11-19T01:09:32;2.00;1.00;1.00
80555;PMS5003;69889;55.040;73.076;2023-11-19T01:11:58;2.50;2.00;1.00
80555;PMS5003;69889;55.040;73.076;2023-11-19T01:14:27;2.25;1.00;1.00
80555;PMS5003;69889;55.040;73.076;2023-11-19T01:16:55;2.00;2.00;1.00
80555;PMS5003;69889;55.040;73.076;2023-11-19T01:19:21;2.00;2.00;1.00
80555;PMS5003;69889;55.040;73.076;2023-11-19T01:21:49;1.00;1.00;1.00
80555;PMS5003;69889;55.040;73.076;2023-11-19T01:24:15;1.75;1.75;1.00
80555;PMS5003;69889;55.040;73.076;2023-11-19T01:26:42;2.00;2.00;1.00
80555;PMS5003;69889;55.040;73.076;2023-11-19T01:29:11;2.00;2.00;1.00
80555;PMS5003;69889;55.040;73.076;2023-11-19T01:31:41;0.50;0.50;0.00
80555;PMS5003;69889;55.040;73.076;2023-11-19T01:34:08;2.00;2.00;1.00
80555;PMS5003;69889;55.040;73.076;2023-11-19T01:36:34;3.50;3.50;2.00
80555;PMS5003;69889;55.040;73.076;2023-11-19T01:39:01;2.00;1.50;1.00
80555;PMS5003;69889;55.040;73.076;2023-11-19T01:41:27;3.00;2.00;1.00
80555;PMS5003;69889;55.040;73.076;2023-11-19T01:43:54;2.00;2.00;1.00
80555;PMS5003;69889;55.040;73.076;2023-11-19T01:46:20;3.00;3.00;1.25
80555;PMS5003;69889;55.040;73.076;2023-11-19T01:48:47;3.00;2.50;1.00
80555;PMS5003;69889;55.040;73.076;2023-11-19T01:51:14;2.00;2.00;1.00
80555;PMS5003;69889;55.040;73.076;2023-11-19T01:53:43;2.00;2.00;1.00
80555;PMS5003;69889;55.040;73.076;2023-11-19T01:56:09;3.50;3.00;2.00
80555;PMS5003;69889;55.040;73.076;2023-11-19T01:58:38;3.00;3.00;1.00
80555;PMS5003;69889;55.040;73.076;2023-11-19T02:01:05;5.75;4.50;2.00
80555;PMS5003;69889;55.040;73.076;2023-11-19T02:03:40;4.50;4.00;3.00
80555;PMS5003;69889;55.040;73.076;2023-11-19T02:06:06;2.75;2.50;1.25
80555;PMS5003;69889;55.040;73.076;2023-11-19T02:08:33;5.00;4.00;3.00
80555;PMS5003;69889;55.040;73.076;2023-11-19T02:11:00;4.00;3.00;2.00
80555;PMS5003;69889;55.040;73.076;2023-11-19T02:13:27;4.00;3.00;2.00
80555;PMS5003;69889;55.040;73.076;2023-11-19T02:15:54;4.00;3.25;2.00
80555;PMS5003;69889;55.040;73.076;2023-11-19T02:18:26;3.75;3.00;2.00
80555;PMS5003;69889;55.040;73.076;2023-11-19T02:20:59;5.00;3.25;2.00
80555;PMS5003;69889;55.040;73.076;2023-11-19T02:23:26;5.00;4.00;2.00
80555;PMS5003;69889;55.040;73.076;2023-11-19T02:25:57;5.00;4.00;2.00
80555;PMS5003;69889;55.040;73.076;2023-11-19T02:28:26;4.00;4.00;2.00
80555;PMS5003;69889;55.040;73.076;2023-11-19T02:30:53;7.00;5.00;3.00
80555;PMS5003;69889;55.040;73.076;2023-11-19T02:33:19;5.00;5.00;3.00
80555;PMS5003;69889;55.040;73.076;2023-11-19T02:35:46;5.00;4.00;3.00
80555;PMS5003;69889;55.040;73.076;2023-11-19T02:38:12;5.00;3.75;2.00
80555;PMS5003;69889;55.040;73.076;2023-11-19T02:40:40;6.00;5.00;3.00
80555;PMS5003;69889;55.040;73.076;2023-11-19T02:43:06;5.00;4.00;3.00
80555;PMS5003;69889;55.040;73.076;2023-11-19T02:45:34;7.00;6.00;4.00
80555;PMS5003;69889;55.040;73.076;2023-11-19T02:48:02;5.00;5.00;3.00
80555;PMS5003;69889;55.040;73.076;2023-11-19T02:50:28;6.00;5.00;3.00
80555;PMS5003;69889;55.040;73.076;2023-11-19T02:52:55;4.75;4.50;2.50
80555;PMS5003;69889;55.040;73.076;2023-11-19T02:55:22;4.50;4.75;3.00
80555;PMS5003;69889;55.040;73.076;2023-11-19T02:57:50;6.25;5.25;3.00
80555;PMS5003;69889;55.040;73.076;2023-11-19T03:00:20;6.00;5.50;3.25
80555;PMS5003;69889;55.040;73.076;2023-11-19T03:02:51;6.00;5.00;3.00
80555;PMS5003;69889;55.040;73.076;2023-11-19T03:05:35;5.00;4.75;3.00
80555;PMS5003;69889;55.040;73.076;2023-11-19T03:08:02;5.00;4.00;3.00
80555;PMS5003;69889;55.040;73.076;2023-11-19T03:10:29;5.50;4.25;2.50
80555;PMS5003;69889;55.040;73.076;2023-11-19T03:12:58;5.00;5.00;3.00
80555;PMS5003;69889;55.040;73.076;2023-11-19T03:15:25;7.25;6.00;4.00
80555;PMS5003;69889;55.040;73.076;2023-11-19T03:17:52;5.50;5.00;2.25
80555;PMS5003;69889;55.040;73.076;2023-11-19T03:20:19;6.00;6.00;3.25
80555;PMS5003;69889;55.040;73.076;2023-11-19T03:22:46;5.25;5.00;3.00
80555;PMS5003;69889;55.040;73.076;2023-11-19T03:25:14;6.00;5.00;3.00
80555;PMS5003;69889;55.040;73.076;2023-11-19T03:27:40;6.00;4.00;2.00
80555;PMS5003;69889;55.040;73.076;2023-11-19T03:30:09;6.00;5.50;3.00
80555;PMS5003;69889;55.040;73.076;2023-11-19T03:32:36;7.00;5.25;3.00
80555;PMS5003;69889;55.040;73.076;2023-11-19T03:35:05;5.50;5.00;3.50
80555;PMS5003;69889;55.040;73.076;2023-11-19T03:37:33;5.50;4.75;3.00
80555;PMS5003;69889;55.040;73.076;2023-11-19T03:40:00;7.00;6.00;3.00
80555;PMS5003;69889;55.040;73.076;2023-11-19T03:42:28;6.00;4.00;3.00
80555;PMS5003;69889;55.040;73.076;2023-11-19T03:44:56;6.00;5.00;3.00
80555;PMS5003;69889;55.040;73.076;2023-11-19T03:47:25;6.00;5.00;3.00
80555;PMS5003;69889;55.040;73.076;2023-11-19T03:50:12;8.00;7.00;3.00
80555;PMS5003;69889;55.040;73.076;2023-11-19T03:52:54;6.00;5.25;3.00
80555;PMS5003;69889;55.040;73.076;2023-11-19T03:55:21;6.00;5.00;3.00
80555;PMS5003;69889;55.040;73.076;2023-11-19T03:57:51;5.00;5.00;3.00
80555;PMS5003;69889;55.040;73.076;2023-11-19T04:00:18;4.50;4.00;2.75
80555;PMS5003;69889;55.040;73.076;2023-11-19T04:02:47;5.00;4.00;3.00
80555;PMS5003;69889;55.040;73.076;2023-11-19T04:05:13;5.00;4.00;2.00
80555;PMS5003;69889;55.040;73.076;2023-11-19T04:07:40;6.75;5.00;3.00
80555;PMS5003;69889;55.040;73.076;2023-11-19T04:10:06;6.00;5.75;3.50
80555;PMS5003;69889;55.040;73.076;2023-11-19T04:12:33;4.75;3.75;2.00
80555;PMS5003;69889;55.040;73.076;2023-11-19T04:14:59;5.25;5.00;3.00
80555;PMS5003;69889;55.040;73.076;2023-11-19T04:17:26;6.00;5.50;3.50
80555;PMS5003;69889;55.040;73.076;2023-11-19T04:19:52;5.00;4.00;3.00
80555;PMS5003;69889;55.040;73.076;2023-11-19T04:22:19;6.00;5.00;4.00
80555;PMS5003;69889;55.040;73.076;2023-11-19T04:24:45;6.00;6.00;3.00
80555;PMS5003;69889;55.040;73.076;2023-11-19T04:27:12;5.00;4.00;3.00
80555;PMS5003;69889;55.040;73.076;2023-11-19T04:29:39;6.00;5.00;3.00
80555;PMS5003;69889;55.040;73.076;2023-11-19T04:32:06;4.00;4.00;2.25
80555;PMS5003;69889;55.040;73.076;2023-11-19T04:34:34;5.50;4.00;2.00
80555;PMS5003;69889;55.040;73.076;2023-11-19T04:37:01;5.00;4.00;2.00
80555;PMS5003;69889;55.040;73.076;2023-11-19T04:39:28;4.75;4.00;2.00
80555;PMS5003;69889;55.040;73.076;2023-11-19T04:41:54;4.25;3.75;2.00
80555;PMS5003;69889;55.040;73.076;2023-11-19T04:44:21;4.00;3.75;2.00
80555;PMS5003;69889;55.040;73.076;2023-11-19T04:46:48;3.00;3.00;2.00
80555;PMS5003;69889;55.040;73.076;2023-11-19T04:49:15;6.00;5.00;3.25
80555;PMS5003;69889;55.040;73.076;2023-11-19T04:51:43;3.00;2.00;2.00
80555;PMS5003;69889;55.040;73.076;2023-11-19T04:54:10;2.00;2.00;1.00
80555;PMS5003;69889;55.040;73.076;2023-11-19T04:56:37;2.00;2.00;1.00
80555;PMS5003;69889;55.040;73.076;2023-11-19T04:59:04;3.00;3.00;2.00
80555;PMS5003;69889;55.040;73.076;2023-11-19T05:01:32;2.00;2.00;1.00
80555;PMS5003;69889;55.040;73.076;2023-11-19T05:04:00;4.00;3.00;2.00
80555;PMS5003;69889;55.040;73.076;2023-11-19T05:06:29;2.00;2.00;1.00
80555;PMS5003;69889;55.040;73.076;2023-11-19T05:08:56;2.00;2.00;1.00
80555;PMS5003;69889;55.040;73.076;2023-11-19T05:11:23;7.00;5.00;2.00
80555;PMS5003;69889;55.040;73.076;2023-11-19T05:13:49;2.50;2.00;1.75
80555;PMS5003;69889;55.040;73.076;2023-11-19T05:16:16;3.00;2.00;2.00
80555;PMS5003;69889;55.040;73.076;2023-11-19T05:18:43;4.00;3.25;2.00
80555;PMS5003;69889;55.040;73.076;2023-11-19T05:21:10;2.00;2.00;2.00
80555;PMS5003;69889;55.040;73.076;2023-11-19T05:23:37;2.00;2.00;1.00
80555;PMS5003;69889;55.040;73.076;2023-11-19T05:26:03;3.00;2.00;1.00
80555;PMS5003;69889;55.040;73.076;2023-11-19T05:28:29;3.00;2.00;1.00
80555;PMS5003;69889;55.040;73.076;2023-11-19T05:30:56;1.00;1.00;0.75
80555;PMS5003;69889;55.040;73.076;2023-11-19T05:33:22;3.00;2.00;1.00
80555;PMS5003;69889;55.040;73.076;2023-11-19T05:35:49;1.00;1.00;1.00
80555;PMS5003;69889;55.040;73.076;2023-11-19T05:38:31;1.75;1.50;1.00
80555;PMS5003;69889;55.040;73.076;2023-11-19T05:40:57;2.00;2.00;1.00
80555;PMS5003;69889;55.040;73.076;2023-11-19T05:43:24;1.00;1.00;1.00
80555;PMS5003;69889;55.040;73.076;2023-11-19T05:45:50;2.00;2.00;1.00
80555;PMS5003;69889;55.040;73.076;2023-11-19T05:48:17;3.75;3.00;2.00
80555;PMS5003;69889;55.040;73.076;2023-11-19T05:50:43;3.00;2.00;1.00
80555;PMS5003;69889;55.040;73.076;2023-11-19T05:53:10;2.75;2.00;1.00
80555;PMS5003;69889;55.040;73.076;2023-11-19T05:55:39;1.00;1.00;1.00
80555;PMS5003;69889;55.040;73.076;2023-11-19T05:58:26;2.00;2.00;1.00
80555;PMS5003;69889;55.040;73.076;2023-11-19T06:00:55;1.00;1.00;1.00
80555;PMS5003;69889;55.040;73.076;2023-11-19T06:03:21;3.00;3.00;1.00
80555;PMS5003;69889;55.040;73.076;2023-11-19T06:05:48;2.50;2.00;1.00
80555;PMS5003;69889;55.040;73.076;2023-11-19T06:08:15;1.00;1.00;0.75
80555;PMS5003;69889;55.040;73.076;2023-11-19T06:10:42;2.75;2.00;1.00
80555;PMS5003;69889;55.040;73.076;2023-11-19T06:13:09;2.00;2.00;1.00
80555;PMS5003;69889;55.040;73.076;2023-11-19T06:15:44;3.00;2.50;1.00
80555;PMS5003;69889;55.040;73.076;2023-11-19T06:18:10;2.00;2.00;2.00
80555;PMS5003;69889;55.040;73.076;2023-11-19T06:20:40;2.00;2.00;1.00
80555;PMS5003;69889;55.040;73.076;2023-11-19T06:23:07;3.00;3.00;2.00
80555;PMS5003;69889;55.040;73.076;2023-11-19T06:25:34;3.00;2.00;1.00
80555;PMS5003;69889;55.040;73.076;2023-11-19T06:28:01;2.00;2.00;1.00
80555;PMS5003;69889;55.040;73.076;2023-11-19T06:30:27;1.00;1.00;1.00
80555;PMS5003;69889;55.040;73.076;2023-11-19T06:32:56;2.00;2.00;1.00
80555;PMS5003;69889;55.040;73.076;2023-11-19T06:35:22;1.00;1.00;1.00
80555;PMS5003;69889;55.040;73.076;2023-11-19T06:37:49;3.00;2.25;1.00
80555;PMS5003;69889;55.040;73.076;2023-11-19T06:40:15;1.00;1.00;1.00
80555;PMS5003;69889;55.040;73.076;2023-11-19T06:42:42;1.75;1.00;1.00
80555;PMS5003;69889;55.040;73.076;2023-11-19T06:45:09;1.00;1.00;1.00
80555;PMS5003;69889;55.040;73.076;2023-11-19T06:47:35;2.00;1.25;0.75
80555;PMS5003;69889;55.040;73.076;2023-11-19T06:50:03;3.00;2.00;1.00
80555;PMS5003;69889;55.040;73.076;2023-11-19T06:52:32;2.00;2.00;1.00
80555;PMS5003;69889;55.040;73.076;2023-11-19T06:54:58;2.00;1.00;1.00
80555;PMS5003;69889;55.040;73.076;2023-11-19T06:57:25;3.00;2.00;1.00
80555;PMS5003;69889;55.040;73.076;2023-11-19T06:59:52;1.00;1.00;1.00
80555;PMS5003;69889;55.040;73.076;2023-11-19T07:02:19;2.00;1.25;1.00
80555;PMS5003;69889;55.040;73.076;2023-11-19T07:04:45;1.00;1.00;1.00
80555;PMS5003;69889;55.040;73.076;2023-11-19T07:07:12;2.00;1.00;1.00
80555;PMS5003;69889;55.040;73.076;2023-11-19T07:09:41;2.00;2.00;1.00
80555;PMS5003;69889;55.040;73.076;2023-11-19T07:12:07;2.00;2.00;1.00
80555;PMS5003;69889;55.040;73.076;2023-11-19T07:14:34;2.00;2.00;1.00
80555;PMS5003;69889;55.040;73.076;2023-11-19T07:17:03;1.75;1.00;1.00
80555;PMS5003;69889;55.040;73.076;2023-11-19T07:19:31;2.00;2.00;1.00
80555;PMS5003;69889;55.040;73.076;2023-11-19T07:21:57;2.00;2.00;1.00
80555;PMS5003;69889;55.040;73.076;2023-11-19T07:24:24;2.75;2.00;1.00
80555;PMS5003;69889;55.040;73.076;2023-11-19T07:26:50;2.00;2.00;1.00
80555;PMS5003;69889;55.040;73.076;2023-11-19T07:29:18;2.00;2.00;1.00
80555;PMS5003;69889;55.040;73.076;2023-11-19T07:31:44;2.75;2.00;1.00
80555;PMS5003;69889;55.040;73.076;2023-11-19T07:34:11;2.00;1.50;1.00
80555;PMS5003;69889;55.040;73.076;2023-11-19T07:36:57;2.50;2.00;2.00
80555;PMS5003;69889;55.040;73.076;2023-11-19T07:39:25;3.00;3.00;2.00
80555;PMS5003;69889;55.040;73.076;2023-11-19T07:41:51;3.00;3.00;1.00
80555;PMS5003;69889;55.040;73.076;2023-11-19T07:44:19;3.00;3.00;2.00
80555;PMS5003;69889;55.040;73.076;2023-11-19T07:46:47;3.00;3.00;2.00
80555;PMS5003;69889;55.040;73.076;2023-11-19T07:49:14;4.00;3.00;1.00
80555;PMS5003;69889;55.040;73.076;2023-11-19T07:51:40;2.00;2.00;1.00
80555;PMS5003;69889;55.040;73.076;2023-11-19T07:54:07;2.00;2.00;1.00
80555;PMS5003;69889;55.040;73.076;2023-11-19T07:56:34;2.00;2.00;1.00
80555;PMS5003;69889;55.040;73.076;2023-11-19T07:59:02;2.00;2.25;2.00
80555;PMS5003;69889;55.040;73.076;2023-11-19T08:01:28;4.00;3.00;1.75
80555;PMS5003;69889;55.040;73.076;2023-11-19T08:03:54;2.00;2.00;2.00
80555;PMS5003;69889;55.040;73.076;2023-11-19T08:06:21;2.00;2.00;1.00
80555;PMS5003;69889;55.040;73.076;2023-11-19T08:08:47;3.00;2.00;1.00
80555;PMS5003;69889;55.040;73.076;2023-11-19T08:11:14;3.00;2.00;1.00
80555;PMS5003;69889;55.040;73.076;2023-11-19T08:13:41;2.00;1.00;1.00
80555;PMS5003;69889;55.040;73.076;2023-11-19T08:16:08;1.50;2.00;1.00
80555;PMS5003;69889;55.040;73.076;2023-11-19T08:18:35;2.00;2.00;1.00
80555;PMS5003;69889;55.040;73.076;2023-11-19T08:21:02;2.00;2.00;1.00
80555;PMS5003;69889;55.040;73.076;2023-11-19T08:23:30;2.00;2.00;1.00
80555;PMS5003;69889;55.040;73.076;2023-11-19T08:25:57;2.00;1.00;1.00
80555;PMS5003;69889;55.040;73.076;2023-11-19T08:28:23;2.00;2.00;1.00
80555;PMS5003;69889;55.040;73.076;2023-11-19T08:30:49;1.25;1.00;1.00
80555;PMS5003;69889;55.040;73.076;2023-11-19T08:33:16;2.00;2.00;1.00
80555;PMS5003;69889;55.040;73.076;2023-11-19T08:35:43;2.00;2.00;1.00
80555;PMS5003;69889;55.040;73.076;2023-11-19T08:38:22;3.00;2.00;1.00
80555;PMS5003;69889;55.040;73.076;2023-11-19T08:40:48;3.00;3.00;2.00
80555;PMS5003;69889;55.040;73.076;2023-11-19T08:43:15;3.25;3.00;2.00
80555;PMS5003;69889;55.040;73.076;2023-11-19T08:45:42;2.00;2.00;1.00
80555;PMS5003;69889;55.040;73.076;2023-11-19T08:48:08;1.00;1.00;1.00
80555;PMS5003;69889;55.040;73.076;2023-11-19T08:50:34;2.00;1.00;1.00
80555;PMS5003;69889;55.040;73.076;2023-11-19T08:53:01;4.00;3.00;1.00
80555;PMS5003;69889;55.040;73.076;2023-11-19T08:55:27;3.00;2.00;1.00
80555;PMS5003;69889;55.040;73.076;2023-11-19T08:57:54;2.00;2.00;1.00
80555;PMS5003;69889;55.040;73.076;2023-11-19T09:00:20;2.00;2.00;1.00
80555;PMS5003;69889;55.040;73.076;2023-11-19T09:02:47;2.00;2.00;1.00
80555;PMS5003;69889;55.040;73.076;2023-11-19T09:05:14;4.00;3.75;1.00
80555;PMS5003;69889;55.040;73.076;2023-11-19T09:07:40;1.75;1.75;1.00
80555;PMS5003;69889;55.040;73.076;2023-11-19T09:10:06;2.00;1.75;1.00
80555;PMS5003;69889;55.040;73.076;2023-11-19T09:12:34;2.00;1.00;1.00
80555;PMS5003;69889;55.040;73.076;2023-11-19T09:15:01;2.00;1.00;1.00
80555;PMS5003;69889;55.040;73.076;2023-11-19T09:17:27;2.00;1.00;1.00
80555;PMS5003;69889;55.040;73.076;2023-11-19T09:19:54;1.75;1.00;1.00
80555;PMS5003;69889;55.040;73.076;2023-11-19T09:22:20;1.00;1.00;1.00
80555;PMS5003;69889;55.040;73.076;2023-11-19T09:24:47;2.00;2.00;1.00
80555;PMS5003;69889;55.040;73.076;2023-11-19T09:27:14;2.00;1.25;1.00
80555;PMS5003;69889;55.040;73.076;2023-11-19T09:29:40;2.00;2.00;1.00
80555;PMS5003;69889;55.040;73.076;2023-11-19T09:32:07;2.00;1.00;1.00
80555;PMS5003;69889;55.040;73.076;2023-11-19T09:34:33;1.00;1.00;1.00
80555;PMS5003;69889;55.040;73.076;2023-11-19T09:37:00;3.00;2.00;1.00
80555;PMS5003;69889;55.040;73.076;2023-11-19T09:39:27;4.00;3.00;2.00
80555;PMS5003;69889;55.040;73.076;2023-11-19T09:41:53;2.00;2.00;1.00
80555;PMS5003;69889;55.040;73.076;2023-11-19T09:44:20;2.00;2.00;1.00
80555;PMS5003;69889;55.040;73.076;2023-11-19T09:46:46;2.00;2.00;1.50
80555;PMS5003;69889;55.040;73.076;2023-11-19T09:49:14;2.25;2.00;1.00
80555;PMS5003;69889;55.040;73.076;2023-11-19T09:51:42;3.00;3.00;2.00
80555;PMS5003;69889;55.040;73.076;2023-11-19T09:54:09;1.00;1.00;0.25
80555;PMS5003;69889;55.040;73.076;2023-11-19T09:56:35;2.25;2.00;1.25
80555;PMS5003;69889;55.040;73.076;2023-11-19T09:59:02;1.75;1.75;1.00
80555;PMS5003;69889;55.040;73.076;2023-11-19T10:01:29;3.00;3.00;2.00
80555;PMS5003;69889;55.040;73.076;2023-11-19T10:03:57;2.25;2.00;1.00
80555;PMS5003;69889;55.040;73.076;2023-11-19T10:06:24;1.00;1.00;0.75
80555;PMS5003;69889;55.040;73.076;2023-11-19T10:08:53;2.00;2.00;1.00
80555;PMS5003;69889;55.040;73.076;2023-11-19T10:11:19;3.00;2.00;2.00
80555;PMS5003;69889;55.040;73.076;2023-11-19T10:13:45;4.00;3.00;2.00
80555;PMS5003;69889;55.040;73.076;2023-11-19T10:16:14;3.00;3.00;2.00
80555;PMS5003;69889;55.040;73.076;2023-11-19T10:18:47;2.25;2.00;1.00
80555;PMS5003;69889;55.040;73.076;2023-11-19T10:21:18;3.00;3.00;2.00
80555;PMS5003;69889;55.040;73.076;2023-11-19T10:23:52;5.00;4.00;2.00
80555;PMS5003;69889;55.040;73.076;2023-11-19T10:26:19;3.00;2.50;1.50
80555;PMS5003;69889;55.040;73.076;2023-11-19T10:28:47;2.00;2.00;1.00
80555;PMS5003;69889;55.040;73.076;2023-11-19T10:31:14;3.00;3.00;2.00
80555;PMS5003;69889;55.040;73.076;2023-11-19T10:33:40;1.75;1.75;1.00
80555;PMS5003;69889;55.040;73.076;2023-11-19T10:36:07;2.00;2.00;1.00
80555;PMS5003;69889;55.040;73.076;2023-11-19T10:38:33;2.00;2.00;1.00
80555;PMS5003;69889;55.040;73.076;2023-11-19T10:41:00;2.00;2.00;1.00
80555;PMS5003;69889;55.040;73.076;2023-11-19T10:43:26;3.00;2.00;1.00
80555;PMS5003;69889;55.040;73.076;2023-11-19T10:45:53;2.00;1.50;1.00
80555;PMS5003;69889;55.040;73.076;2023-11-19T10:48:20;5.00;4.00;2.00
80555;PMS5003;69889;55.040;73.076;2023-11-19T10:50:49;3.00;3.00;2.00
80555;PMS5003;69889;55.040;73.076;2023-11-19T10:53:19;3.00;3.00;2.00
80555;PMS5003;69889;55.040;73.076;2023-11-19T10:55:47;4.00;3.00;2.00
80555;PMS5003;69889;55.040;73.076;2023-11-19T10:58:15;3.00;2.00;2.00
80555;PMS5003;69889;55.040;73.076;2023-11-19T11:00:54;1.75;1.25;1.00
80555;PMS5003;69889;55.040;73.076;2023-11-19T11:03:25;3.00;3.00;1.00
80555;PMS5003;69889;55.040;73.076;2023-11-19T11:05:53;4.00;3.00;2.00
80555;PMS5003;69889;55.040;73.076;2023-11-19T11:08:20;2.50;2.25;2.00
80555;PMS5003;69889;55.040;73.076;2023-11-19T11:10:53;3.00;2.50;2.00
80555;PMS5003;69889;55.040;73.076;2023-11-19T11:13:22;3.00;3.00;2.00
80555;PMS5003;69889;55.040;73.076;2023-11-19T11:15:49;2.75;2.00;1.50
80555;PMS5003;69889;55.040;73.076;2023-11-19T11:18:16;3.00;2.00;1.00
80555;PMS5003;69889;55.040;73.076;2023-11-19T11:20:44;5.00;3.75;2.00
80555;PMS5003;69889;55.040;73.076;2023-11-19T11:31:23;22.00;18.00;11.00
80555;PMS5003;69889;55.040;73.076;2023-11-19T11:39:26;17.00;14.75;9.75
80555;PMS5003;69889;55.040;73.076;2023-11-19T11:47:27;11.25;10.00;6.00
80555;PMS5003;69889;55.040;73.076;2023-11-19T11:50:13;14.00;11.50;7.00
80555;PMS5003;69889;55.040;73.076;2023-11-19T11:55:37;10.00;9.50;6.00
80555;PMS5003;69889;55.040;73.076;2023-11-19T11:58:18;10.00;9.00;6.00
80555;PMS5003;69889;55.040;73.076;2023-11-19T12:00:44;10.00;9.00;6.00
80555;PMS5003;69889;55.040;73.076;2023-11-19T12:03:12;14.00;11.50;6.75
80555;PMS5003;69889;55.040;73.076;2023-11-19T12:05:43;13.00;10.75;6.75
80555;PMS5003;69889;55.040;73.076;2023-11-19T12:08:10;12.50;10.25;6.50
80555;PMS5003;69889;55.040;73.076;2023-11-19T12:10:43;17.25;14.00;8.00
80555;PMS5003;69889;55.040;73.076;2023-11-19T12:13:10;14.00;11.00;6.25
80555;PMS5003;69889;55.040;73.076;2023-11-19T12:18:38;18.00;14.00;8.25
80555;PMS5003;69889;55.040;73.076;2023-11-19T12:21:07;14.75;13.25;7.75
80555;PMS5003;69889;55.040;73.076;2023-11-19T12:23:44;8.50;7.25;5.50
80555;PMS5003;69889;55.040;73.076;2023-11-19T12:26:20;9.75;9.00;5.00
80555;PMS5003;69889;55.040;73.076;2023-11-19T12:29:00;11.00;9.00;5.75
80555;PMS5003;69889;55.040;73.076;2023-11-19T12:31:33;12.00;10.00;6.00
80555;PMS5003;69889;55.040;73.076;2023-11-19T12:34:04;14.25;13.00;8.75
80555;PMS5003;69889;55.040;73.076;2023-11-19T12:36:31;14.75;14.25;9.00
80555;PMS5003;69889;55.040;73.076;2023-11-19T12:39:05;16.00;15.00;10.00
80555;PMS5003;69889;55.040;73.076;2023-11-19T12:41:32;20.75;18.00;12.00
80555;PMS5003;69889;55.040;73.076;2023-11-19T12:44:10;19.75;17.25;11.50
80555;PMS5003;69889;55.040;73.076;2023-11-19T12:47:06;22.25;18.00;11.25
80555;PMS5003;69889;55.040;73.076;2023-11-19T12:49:33;18.00;15.00;10.00
80555;PMS5003;69889;55.040;73.076;2023-11-19T12:51:59;16.25;13.75;9.25
80555;PMS5003;69889;55.040;73.076;2023-11-19T12:54:35;20.50;18.75;11.75
80555;PMS5003;69889;55.040;73.076;2023-11-19T12:57:02;22.25;20.00;12.75
80555;PMS5003;69889;55.040;73.076;2023-11-19T12:59:29;25.75;23.00;15.00
80555;PMS5003;69889;55.040;73.076;2023-11-19T13:02:08;24.25;21.50;15.00
80555;PMS5003;69889;55.040;73.076;2023-11-19T13:04:35;26.00;22.00;13.50
80555;PMS5003;69889;55.040;73.076;2023-11-19T13:07:12;19.00;16.00;11.00
80555;PMS5003;69889;55.040;73.076;2023-11-19T13:09:39;15.00;13.25;9.00
80555;PMS5003;69889;55.040;73.076;2023-11-19T13:12:14;13.75;12.25;8.25
80555;PMS5003;69889;55.040;73.076;2023-11-19T13:14:41;14.25;11.50;6.75
80555;PMS5003;69889;55.040;73.076;2023-11-19T13:17:12;15.00;13.00;8.00
80555;PMS5003;69889;55.040;73.076;2023-11-19T13:19:39;14.00;11.00;6.25
80555;PMS5003;69889;55.040;73.076;2023-11-19T13:22:06;11.25;10.00;7.00
80555;PMS5003;69889;55.040;73.076;2023-11-19T13:24:33;19.00;15.00;10.00
80555;PMS5003;69889;55.040;73.076;2023-11-19T13:27:00;15.75;13.75;9.25
80555;PMS5003;69889;55.040;73.076;2023-11-19T13:29:38;12.50;9.75;6.75
80555;PMS5003;69889;55.040;73.076;2023-11-19T13:32:04;10.00;9.00;5.00
80555;PMS5003;69889;55.040;73.076;2023-11-19T13:34:43;14.00;12.75;7.50
80555;PMS5003;69889;55.040;73.076;2023-11-19T13:37:10;13.50;11.75;7.00
80555;PMS5003;69889;55.040;73.076;2023-11-19T13:39:41;30.25;24.75;14.00
80555;PMS5003;69889;55.040;73.076;2023-11-19T13:42:07;71.50;53.75;31.50
80555;PMS5003;69889;55.040;73.076;2023-11-19T13:44:35;143.50;117.25;65.00
80555;PMS5003;69889;55.040;73.076;2023-11-19T13:47:01;82.50;65.00;34.75
80555;PMS5003;69889;55.040;73.076;2023-11-19T13:49:28;106.50;84.00;44.25
80555;PMS5003;69889;55.040;73.076;2023-11-19T13:51:55;82.00;63.50;33.50
80555;PMS5003;69889;55.040;73.076;2023-11-19T13:54:21;32.25;25.25;15.00
80555;PMS5003;69889;55.040;73.076;2023-11-19T13:56:49;14.25;12.00;7.00
80555;PMS5003;69889;55.040;73.076;2023-11-19T13:59:23;14.00;11.75;6.75
80555;PMS5003;69889;55.040;73.076;2023-11-19T14:01:49;16.00;13.75;8.25
80555;PMS5003;69889;55.040;73.076;2023-11-19T14:04:15;19.50;16.00;10.50
80555;PMS5003;69889;55.040;73.076;2023-11-19T14:06:44;21.25;19.00;13.00
80555;PMS5003;69889;55.040;73.076;2023-11-19T14:09:11;25.00;20.00;13.75
80555;PMS5003;69889;55.040;73.076;2023-11-19T14:11:38;27.75;23.25;14.75
80555;PMS5003;69889;55.040;73.076;2023-11-19T14:14:05;31.50;25.25;16.75
80555;PMS5003;69889;55.040;73.076;2023-11-19T14:16:31;29.00;23.00;15.25
80555;PMS5003;69889;55.040;73.076;2023-11-19T14:18:58;27.75;23.00;15.75
80555;PMS5003;69889;55.040;73.076;2023-11-19T14:21:25;33.00;27.00;16.75
80555;PMS5003;69889;55.040;73.076;2023-11-19T14:23:52;31.25;25.50;16.00
80555;PMS5003;69889;55.040;73.076;2023-11-19T14:26:19;25.25;22.00;12.75
80555;PMS5003;69889;55.040;73.076;2023-11-19T14:28:45;23.50;19.25;13.25
80555;PMS5003;69889;55.040;73.076;2023-11-19T14:31:30;19.00;16.00;10.00
80555;PMS5003;69889;55.040;73.076;2023-11-19T14:33:58;14.00;12.00;7.00